Goch-Asperden Airport

EDLG · North Rhine-Westphalia, 德国

罗盘
风向 的 风向 的 风向 到 风向 050° Goch-Asperden Airport 10/28
风: 6 kt, 2 beaufort

4 kt

5 kt
改变
0 1.000 2.000 3.000 4.000 5.000
OVC 1.200 ft
METAR EDLV 030520Z 05006KT 340V120 9000 OVC012 02/M00 Q1022

METAR Goch-Asperden Airport - EDLG

Goch-Asperden Airport是,德国中的小机场。 该机场有一条跑道: 10/28. 该领域的国际民航组织标志是EDLG.

这份报告是针对2022年12月3日 06:20, 当地时间在Weeze Airport进行的。

机场观察

风向为050°,速度为6 kt。 风向在340°和120°之间变化。

可见度为9 km。

有乌云密布在1.200 ft的高度。 破损或更高的上限为1.200 ft。

温度为2 °C,阵风为-3 °C。 海平面上的气压为1022 hPa (QNH)。

白天

今天,太阳从08:22升起,在16:28降落。 这适用于Goch-Asperden Airport,世界夏令时可能有所不同。 当地时间与世界标准时间之间的时差为+1 小时。 当前,没有夏令时有效。

公司介绍

我们没有关于这个机场的公司信息。

体会

到Vliegles.nl去找飞行课程,跳伞和其他飞行体验。 浏览页面,了解Goch-Asperden Airport附近所有可用的活动。 你也可以使用搜索功能来寻找你所在地附近的特定飞行课程、跳伞或其他飞行体验。

跑道

Id 标题 侧风 逆风 侧风 %
10/28 099°-279° 5 kt 4 kt 75 %

逆风成分最大的方向会被突出显示,并用于横风计算。 这并不一定意味着这个方向在使用。

乌云

1.200 ft OVC 乌云密布

温度 & 天气

温度 2 °C
露点 0 °C
相对湿度 87%
风寒 -3 °C
Kp-index 3 (0-9)

白天

日出
08:21 (1:36)
中午
12:25
日落
16:28

小工具

你想在你的网站上有一个关于Goch-Asperden Airport的当前航空天气(METAR)的小部件吗?

显示HTML代码

我们和第三方通过cookies跟踪您在我们网站上的互联网行为。如果你继续,我们认为你同意我们的饼干政策